FDX508 KDEN-KSAN
Flight info
| Callsign | FDX508 |
|---|---|
| Flight time | N/A |
| Altitude | 34000 |
| Route | BAYLR6 TEHRU PLNDL Q86 TTRUE TOPGN2 |
| Aircraft | A306/H-SDE3FGHIRWY/LB1 |
Departure
| Time | 2026-05-08 05:15 |
|---|---|
| Airport | Denver International Airport (KDEN) |
Arrival
| Time | N/A |
|---|---|
| Airport | San Diego International Airport (KSAN) |
| Time | Latitude | Longitude | Altitude | Speed | Heading |
|---|---|---|---|---|---|
| 2026-05-08 04:32 | 39.83101 | -104.67486 | 5388 ft | 0 kts | 360° |
| 2026-05-08 05:05 | 39.83093 | -104.67486 | 5388 ft | 4 kts | 0° |
| 2026-05-08 05:05 | 39.83066 | -104.67486 | 5393 ft | 4 kts | 358° |
| 2026-05-08 05:05 | 39.83040 | -104.67487 | 5389 ft | 4 kts | 18° |
| 2026-05-08 05:05 | 39.83019 | -104.67503 | 5387 ft | 4 kts | 57° |
| 2026-05-08 05:06 | 39.83012 | -104.67524 | 5385 ft | 1 kts | 91° |
| 2026-05-08 05:10 | 39.83013 | -104.67441 | 5389 ft | 3 kts | 89° |
| 2026-05-08 05:10 | 39.83014 | -104.67418 | 5391 ft | 4 kts | 88° |
| 2026-05-08 05:11 | 39.83013 | -104.67354 | 5392 ft | 10 kts | 95° |
| 2026-05-08 05:11 | 39.82985 | -104.67240 | 5399 ft | 16 kts | 114° |
| 2026-05-08 05:11 | 39.82955 | -104.67146 | 5406 ft | 18 kts | 110° |
| 2026-05-08 05:11 | 39.82937 | -104.66974 | 5420 ft | 21 kts | 91° |
| 2026-05-08 05:12 | 39.82938 | -104.66697 | 5434 ft | 24 kts | 92° |
| 2026-05-08 05:12 | 39.82934 | -104.66550 | 5443 ft | 24 kts | 94° |
| 2026-05-08 05:12 | 39.82933 | -104.66331 | 5447 ft | 23 kts | 90° |
| 2026-05-08 05:12 | 39.82933 | -104.66212 | 5450 ft | 0 kts | 88° |
| 2026-05-08 05:13 | 39.82933 | -104.66194 | 5451 ft | 6 kts | 89° |
| 2026-05-08 05:13 | 39.82937 | -104.66122 | 5453 ft | 10 kts | 80° |
| 2026-05-08 05:13 | 39.82997 | -104.66059 | 5452 ft | 15 kts | 4° |
| 2026-05-08 05:14 | 39.83164 | -104.66057 | 5446 ft | 44 kts | 2° |
| 2026-05-08 05:14 | 39.83674 | -104.66047 | 5416 ft | 100 kts | 1° |
| 2026-05-08 05:14 | 39.84524 | -104.66027 | 5415 ft | 143 kts | 359° |
| 2026-05-08 05:14 | 39.85651 | -104.66025 | 5407 ft | 182 kts | 357° |
| 2026-05-08 05:15 | 39.86915 | -104.66074 | 6034 ft | 176 kts | 356° |
| 2026-05-08 05:15 | 39.88049 | -104.66364 | 6855 ft | 161 kts | 335° |
| 2026-05-08 05:15 | 39.89044 | -104.67131 | 7019 ft | 164 kts | 315° |
| 2026-05-08 05:15 | 39.89795 | -104.68195 | 6897 ft | 165 kts | 303° |
| 2026-05-08 05:16 | 39.90241 | -104.69583 | 7116 ft | 170 kts | 270° |
| 2026-05-08 05:16 | 39.89845 | -104.71031 | 7537 ft | 176 kts | 231° |
| 2026-05-08 05:16 | 39.88922 | -104.72123 | 8204 ft | 187 kts | 223° |
| 2026-05-08 05:16 | 39.87895 | -104.73415 | 8297 ft | 229 kts | 227° |
| 2026-05-08 05:17 | 39.86648 | -104.75002 | 8324 ft | 265 kts | 227° |
| 2026-05-08 05:17 | 39.85258 | -104.76711 | 8589 ft | 288 kts | 225° |
| 2026-05-08 05:17 | 39.83695 | -104.78504 | 8919 ft | 305 kts | 226° |
| 2026-05-08 05:17 | 39.82266 | -104.80528 | 9656 ft | 302 kts | 233° |
| 2026-05-08 05:18 | 39.81040 | -104.82664 | 10570 ft | 299 kts | 242° |
| 2026-05-08 05:18 | 39.79958 | -104.85075 | 11024 ft | 318 kts | 244° |
| 2026-05-08 05:18 | 39.78797 | -104.87641 | 11353 ft | 339 kts | 243° |
| 2026-05-08 05:18 | 39.77561 | -104.90365 | 11678 ft | 356 kts | 248° |
| 2026-05-08 05:19 | 39.76814 | -104.93477 | 12050 ft | 368 kts | 259° |
| 2026-05-08 05:19 | 39.76117 | -104.96719 | 12603 ft | 377 kts | 258° |
| 2026-05-08 05:19 | 39.75409 | -105.00042 | 13264 ft | 383 kts | 258° |
| 2026-05-08 05:19 | 39.74595 | -105.03363 | 13862 ft | 391 kts | 253° |
| 2026-05-08 05:20 | 39.73558 | -105.06681 | 14500 ft | 397 kts | 251° |
| 2026-05-08 05:20 | 39.72472 | -105.09995 | 15155 ft | 400 kts | 251° |
| 2026-05-08 05:20 | 39.71386 | -105.13289 | 15817 ft | 403 kts | 251° |
| 2026-05-08 05:20 | 39.70284 | -105.16636 | 16481 ft | 406 kts | 251° |
| 2026-05-08 05:21 | 39.69151 | -105.20078 | 17086 ft | 410 kts | 251° |
| 2026-05-08 05:21 | 39.68041 | -105.23452 | 17629 ft | 414 kts | 251° |
| 2026-05-08 05:21 | 39.66904 | -105.26901 | 18256 ft | 417 kts | 251° |
| 2026-05-08 05:21 | 39.65759 | -105.30383 | 18763 ft | 420 kts | 251° |
| 2026-05-08 05:22 | 39.64606 | -105.33879 | 19272 ft | 423 kts | 251° |
| 2026-05-08 05:22 | 39.63435 | -105.37421 | 19749 ft | 427 kts | 251° |
| 2026-05-08 05:22 | 39.62262 | -105.40975 | 20256 ft | 431 kts | 251° |
| 2026-05-08 05:22 | 39.61080 | -105.44564 | 20729 ft | 434 kts | 251° |
| 2026-05-08 05:23 | 39.59885 | -105.48186 | 21207 ft | 438 kts | 251° |
| 2026-05-08 05:23 | 39.58673 | -105.51831 | 21657 ft | 441 kts | 251° |
| 2026-05-08 05:23 | 39.57455 | -105.55486 | 22143 ft | 444 kts | 251° |
| 2026-05-08 05:23 | 39.56237 | -105.59134 | 22586 ft | 447 kts | 250° |
| 2026-05-08 05:24 | 39.55043 | -105.62862 | 23037 ft | 449 kts | 253° |
| 2026-05-08 05:24 | 39.53971 | -105.66675 | 23461 ft | 452 kts | 254° |
| 2026-05-08 05:24 | 39.52917 | -105.70518 | 23841 ft | 454 kts | 254° |
| 2026-05-08 05:24 | 39.51851 | -105.74399 | 24180 ft | 457 kts | 254° |
| 2026-05-08 05:25 | 39.50777 | -105.78284 | 24504 ft | 460 kts | 254° |
| 2026-05-08 05:25 | 39.49694 | -105.82196 | 24833 ft | 462 kts | 254° |
| 2026-05-08 05:25 | 39.48601 | -105.86130 | 25153 ft | 465 kts | 254° |
| 2026-05-08 05:25 | 39.47500 | -105.90082 | 25437 ft | 467 kts | 255° |
| 2026-05-08 05:26 | 39.46394 | -105.94047 | 25762 ft | 470 kts | 255° |
| 2026-05-08 05:26 | 39.45293 | -105.97989 | 26088 ft | 472 kts | 255° |
| 2026-05-08 05:26 | 39.44160 | -106.02034 | 26411 ft | 474 kts | 255° |
| 2026-05-08 05:26 | 39.43031 | -106.06063 | 26730 ft | 476 kts | 255° |
| 2026-05-08 05:27 | 39.41916 | -106.10040 | 26989 ft | 479 kts | 255° |
| 2026-05-08 05:27 | 39.40771 | -106.14102 | 27376 ft | 479 kts | 255° |
| 2026-05-08 05:27 | 39.39631 | -106.18146 | 27866 ft | 477 kts | 255° |
| 2026-05-08 05:27 | 39.38494 | -106.22171 | 28321 ft | 477 kts | 255° |
| 2026-05-08 05:28 | 39.37353 | -106.26208 | 28738 ft | 476 kts | 255° |
| 2026-05-08 05:28 | 39.36213 | -106.30231 | 29155 ft | 476 kts | 255° |
| 2026-05-08 05:28 | 39.35078 | -106.34241 | 29568 ft | 475 kts | 255° |
| 2026-05-08 05:28 | 39.33939 | -106.38253 | 29958 ft | 475 kts | 255° |
| 2026-05-08 05:29 | 39.32847 | -106.42094 | 30271 ft | 475 kts | 255° |
| 2026-05-08 05:29 | 39.31719 | -106.46055 | 30634 ft | 474 kts | 255° |
| 2026-05-08 05:29 | 39.30581 | -106.50042 | 31021 ft | 472 kts | 255° |
| 2026-05-08 05:29 | 39.29443 | -106.54022 | 31396 ft | 471 kts | 255° |
| 2026-05-08 05:30 | 39.28308 | -106.57987 | 31750 ft | 469 kts | 255° |
| 2026-05-08 05:30 | 39.27175 | -106.61939 | 32104 ft | 468 kts | 255° |
| 2026-05-08 05:30 | 39.26046 | -106.65871 | 32515 ft | 467 kts | 255° |
| 2026-05-08 05:30 | 39.24882 | -106.69738 | 32905 ft | 468 kts | 251° |
| 2026-05-08 05:31 | 39.23329 | -106.73452 | 33277 ft | 475 kts | 242° |
| 2026-05-08 05:31 | 39.21410 | -106.76926 | 33673 ft | 476 kts | 238° |
| 2026-05-08 05:31 | 39.19387 | -106.80324 | 34054 ft | 476 kts | 237° |
| 2026-05-08 05:31 | 39.17322 | -106.83673 | 34179 ft | 477 kts | 236° |
| 2026-05-08 05:32 | 39.15240 | -106.87006 | 34189 ft | 477 kts | 236° |
| 2026-05-08 05:32 | 39.11109 | -106.93631 | 34169 ft | 476 kts | 237° |
| 2026-05-08 05:33 | 39.06985 | -107.00305 | 34126 ft | 476 kts | 237° |
| 2026-05-08 05:33 | 39.02869 | -107.06994 | 34078 ft | 476 kts | 237° |
| 2026-05-08 05:34 | 38.98771 | -107.13650 | 34030 ft | 476 kts | 237° |
| 2026-05-08 05:34 | 38.94650 | -107.20326 | 34010 ft | 476 kts | 237° |
| 2026-05-08 05:35 | 38.90527 | -107.26997 | 34001 ft | 477 kts | 237° |
| 2026-05-08 05:35 | 38.86398 | -107.33660 | 34003 ft | 477 kts | 237° |
| 2026-05-08 05:36 | 38.82276 | -107.40286 | 33999 ft | 477 kts | 237° |
| 2026-05-08 05:36 | 38.78131 | -107.46939 | 33988 ft | 477 kts | 237° |
| 2026-05-08 05:37 | 38.73983 | -107.53585 | 33984 ft | 477 kts | 237° |
| 2026-05-08 05:37 | 38.69862 | -107.60178 | 34018 ft | 477 kts | 237° |
| 2026-05-08 05:38 | 38.65704 | -107.66812 | 34056 ft | 477 kts | 237° |
| 2026-05-08 05:38 | 38.61541 | -107.73440 | 34092 ft | 477 kts | 237° |
| 2026-05-08 05:39 | 38.57384 | -107.80053 | 34130 ft | 478 kts | 237° |
| 2026-05-08 05:39 | 38.53218 | -107.86658 | 34139 ft | 477 kts | 237° |
| 2026-05-08 05:40 | 38.49040 | -107.93266 | 34138 ft | 477 kts | 237° |
| 2026-05-08 05:40 | 38.44856 | -107.99868 | 34131 ft | 477 kts | 237° |
| 2026-05-08 05:41 | 38.40706 | -108.06406 | 34092 ft | 477 kts | 237° |
| 2026-05-08 05:41 | 38.36530 | -108.12977 | 34057 ft | 476 kts | 237° |
| 2026-05-08 05:42 | 38.32351 | -108.19535 | 34023 ft | 476 kts | 237° |
| 2026-05-08 05:42 | 38.28177 | -108.26074 | 33997 ft | 476 kts | 237° |
| 2026-05-08 05:43 | 38.24015 | -108.32586 | 33996 ft | 476 kts | 237° |
| 2026-05-08 05:43 | 38.19833 | -108.39112 | 33991 ft | 476 kts | 237° |
| 2026-05-08 05:44 | 38.15639 | -108.45639 | 33980 ft | 474 kts | 237° |
| 2026-05-08 05:44 | 38.11487 | -108.52086 | 33994 ft | 470 kts | 237° |
| 2026-05-08 05:45 | 38.07368 | -108.58478 | 33982 ft | 470 kts | 237° |
| 2026-05-08 05:45 | 38.03226 | -108.64891 | 33980 ft | 470 kts | 237° |
| 2026-05-08 05:46 | 37.99070 | -108.71312 | 33982 ft | 470 kts | 237° |
| 2026-05-08 05:46 | 37.94915 | -108.77717 | 33984 ft | 470 kts | 237° |
| 2026-05-08 05:47 | 37.90753 | -108.84115 | 33981 ft | 470 kts | 237° |
| 2026-05-08 05:47 | 37.86584 | -108.90520 | 33986 ft | 471 kts | 237° |
| 2026-05-08 05:48 | 37.82413 | -108.96918 | 33986 ft | 472 kts | 236° |
| 2026-05-08 05:48 | 37.78244 | -109.03296 | 33985 ft | 472 kts | 236° |
| 2026-05-08 05:49 | 37.74045 | -109.09708 | 33985 ft | 473 kts | 236° |
| 2026-05-08 05:49 | 37.69843 | -109.16116 | 34021 ft | 473 kts | 236° |
| 2026-05-08 05:50 | 37.65628 | -109.22522 | 34067 ft | 474 kts | 236° |
| 2026-05-08 05:50 | 37.61402 | -109.28930 | 34088 ft | 475 kts | 236° |
| 2026-05-08 05:51 | 37.57192 | -109.35305 | 34118 ft | 475 kts | 235° |
| 2026-05-08 05:51 | 37.52956 | -109.41708 | 34117 ft | 476 kts | 235° |
| 2026-05-08 05:52 | 37.48702 | -109.48129 | 34116 ft | 477 kts | 235° |
| 2026-05-08 05:52 | 37.44468 | -109.54507 | 34089 ft | 477 kts | 235° |
| 2026-05-08 05:53 | 37.40202 | -109.60920 | 34052 ft | 478 kts | 235° |
| 2026-05-08 05:53 | 37.35919 | -109.67344 | 34016 ft | 479 kts | 235° |
| 2026-05-08 05:54 | 37.31629 | -109.73767 | 33979 ft | 480 kts | 235° |
| 2026-05-08 05:54 | 37.27330 | -109.80192 | 33960 ft | 480 kts | 235° |
| 2026-05-08 05:55 | 37.23056 | -109.86565 | 33959 ft | 480 kts | 235° |
| 2026-05-08 05:55 | 37.18748 | -109.92975 | 33955 ft | 481 kts | 234° |
| 2026-05-08 05:56 | 37.14415 | -109.99412 | 33957 ft | 481 kts | 234° |
| 2026-05-08 05:56 | 37.10117 | -110.05784 | 33952 ft | 481 kts | 234° |
| 2026-05-08 05:57 | 37.05793 | -110.12182 | 33949 ft | 481 kts | 234° |
| 2026-05-08 05:57 | 37.01457 | -110.18589 | 33945 ft | 482 kts | 234° |
| 2026-05-08 05:58 | 36.97846 | -110.23912 | 33945 ft | 482 kts | 234° |
| 2026-05-08 05:58 | 36.93511 | -110.30292 | 33937 ft | 482 kts | 234° |
| 2026-05-08 05:59 | 36.89158 | -110.36685 | 33939 ft | 482 kts | 234° |
| 2026-05-08 05:59 | 36.84803 | -110.43069 | 33946 ft | 482 kts | 234° |
| 2026-05-08 06:00 | 36.80471 | -110.49406 | 33941 ft | 483 kts | 234° |
| 2026-05-08 06:00 | 36.76104 | -110.55786 | 33940 ft | 483 kts | 233° |
| 2026-05-08 06:01 | 36.71729 | -110.62163 | 33939 ft | 483 kts | 233° |
| 2026-05-08 06:01 | 36.67336 | -110.68553 | 33937 ft | 484 kts | 233° |
| 2026-05-08 06:02 | 36.62976 | -110.74885 | 33938 ft | 484 kts | 233° |
| 2026-05-08 06:02 | 36.58575 | -110.81264 | 33936 ft | 485 kts | 233° |
| 2026-05-08 06:03 | 36.54167 | -110.87637 | 33935 ft | 486 kts | 233° |
| 2026-05-08 06:03 | 36.49776 | -110.93979 | 33943 ft | 486 kts | 233° |
| 2026-05-08 06:04 | 36.45354 | -111.00354 | 33942 ft | 487 kts | 233° |
| 2026-05-08 06:04 | 36.40916 | -111.06739 | 33942 ft | 488 kts | 233° |
| 2026-05-08 06:05 | 36.36462 | -111.13132 | 33948 ft | 489 kts | 233° |
| 2026-05-08 06:05 | 36.32025 | -111.19490 | 33946 ft | 489 kts | 233° |
| 2026-05-08 06:06 | 36.27557 | -111.25877 | 33950 ft | 490 kts | 233° |
| 2026-05-08 06:06 | 36.23081 | -111.32266 | 33955 ft | 490 kts | 233° |
| 2026-05-08 06:07 | 36.18596 | -111.38655 | 33958 ft | 491 kts | 233° |
| 2026-05-08 06:07 | 36.14133 | -111.45002 | 33960 ft | 491 kts | 232° |
| 2026-05-08 06:08 | 36.09637 | -111.51383 | 33970 ft | 491 kts | 232° |
| 2026-05-08 06:08 | 36.05174 | -111.57705 | 33975 ft | 491 kts | 232° |
| 2026-05-08 06:09 | 36.00675 | -111.64066 | 33984 ft | 490 kts | 232° |
| 2026-05-08 06:09 | 35.96181 | -111.70406 | 34001 ft | 491 kts | 232° |
| 2026-05-08 06:10 | 35.91679 | -111.76744 | 34018 ft | 490 kts | 232° |
| 2026-05-08 06:10 | 35.87178 | -111.83077 | 34026 ft | 490 kts | 232° |
| 2026-05-08 06:11 | 35.83072 | -111.89674 | 34033 ft | 485 kts | 242° |
| 2026-05-08 06:11 | 35.79679 | -111.96841 | 34036 ft | 484 kts | 244° |
| 2026-05-08 06:12 | 35.76411 | -112.04107 | 34035 ft | 484 kts | 245° |
| 2026-05-08 06:12 | 35.73157 | -112.11348 | 34034 ft | 484 kts | 244° |
| 2026-05-08 06:13 | 35.69834 | -112.18511 | 34039 ft | 484 kts | 244° |
| 2026-05-08 06:13 | 35.66449 | -112.25687 | 34030 ft | 484 kts | 243° |
| 2026-05-08 06:14 | 35.63063 | -112.32853 | 34020 ft | 484 kts | 243° |
| 2026-05-08 06:14 | 35.59678 | -112.40032 | 34027 ft | 484 kts | 244° |
| 2026-05-08 06:15 | 35.56351 | -112.47162 | 34020 ft | 484 kts | 244° |
| 2026-05-08 06:15 | 35.53010 | -112.54334 | 33995 ft | 484 kts | 244° |
| 2026-05-08 06:16 | 35.49658 | -112.61509 | 33985 ft | 484 kts | 244° |
| 2026-05-08 06:16 | 35.46297 | -112.68681 | 33982 ft | 484 kts | 243° |
| 2026-05-08 06:17 | 35.41256 | -112.79411 | 33971 ft | 484 kts | 243° |
| 2026-05-08 06:17 | 35.37909 | -112.86511 | 33961 ft | 484 kts | 243° |
| 2026-05-08 06:18 | 35.34535 | -112.93656 | 33960 ft | 484 kts | 243° |
| 2026-05-08 06:18 | 35.31151 | -113.00808 | 33957 ft | 484 kts | 243° |
| 2026-05-08 06:19 | 35.27769 | -113.07941 | 33947 ft | 484 kts | 243° |
| 2026-05-08 06:19 | 35.24405 | -113.15022 | 33947 ft | 484 kts | 243° |
| 2026-05-08 06:20 | 35.21009 | -113.22154 | 33923 ft | 484 kts | 243° |
| 2026-05-08 06:20 | 35.17612 | -113.29271 | 33915 ft | 484 kts | 243° |
| 2026-05-08 06:21 | 35.14211 | -113.36385 | 33917 ft | 484 kts | 243° |
| 2026-05-08 06:21 | 35.10815 | -113.43477 | 33908 ft | 483 kts | 243° |
| 2026-05-08 06:22 | 35.07436 | -113.50514 | 33901 ft | 483 kts | 243° |
| 2026-05-08 06:22 | 35.04027 | -113.57601 | 33893 ft | 483 kts | 242° |
| 2026-05-08 06:23 | 35.00617 | -113.64676 | 33898 ft | 483 kts | 242° |
| 2026-05-08 06:23 | 34.97209 | -113.71730 | 33899 ft | 483 kts | 242° |
| 2026-05-08 06:24 | 34.93795 | -113.78783 | 33890 ft | 483 kts | 242° |
| 2026-05-08 06:24 | 34.90377 | -113.85832 | 33874 ft | 483 kts | 242° |
| 2026-05-08 06:25 | 34.86952 | -113.92879 | 33863 ft | 483 kts | 242° |
| 2026-05-08 06:25 | 34.83417 | -113.99793 | 33855 ft | 484 kts | 240° |
| 2026-05-08 06:26 | 34.79830 | -114.06734 | 33851 ft | 484 kts | 240° |
| 2026-05-08 06:26 | 34.76239 | -114.13681 | 33853 ft | 485 kts | 240° |
| 2026-05-08 06:27 | 34.72665 | -114.20584 | 33860 ft | 485 kts | 240° |
| 2026-05-08 06:27 | 34.69057 | -114.27541 | 33871 ft | 486 kts | 240° |
| 2026-05-08 06:28 | 34.65443 | -114.34496 | 33878 ft | 486 kts | 240° |
| 2026-05-08 06:28 | 34.61481 | -114.41114 | 33877 ft | 489 kts | 231° |
| 2026-05-08 06:29 | 34.57002 | -114.47319 | 33877 ft | 488 kts | 231° |
| 2026-05-08 06:29 | 34.52509 | -114.53507 | 33863 ft | 489 kts | 231° |
| 2026-05-08 06:30 | 34.48015 | -114.59699 | 33850 ft | 487 kts | 231° |
| 2026-05-08 06:30 | 34.43564 | -114.65828 | 33834 ft | 486 kts | 231° |
| 2026-05-08 06:31 | 34.39087 | -114.71981 | 33829 ft | 486 kts | 231° |
| 2026-05-08 06:31 | 34.34642 | -114.78080 | 33831 ft | 485 kts | 231° |
| 2026-05-08 06:32 | 34.30171 | -114.84195 | 33836 ft | 484 kts | 231° |
| 2026-05-08 06:32 | 34.25707 | -114.90291 | 33836 ft | 484 kts | 230° |
| 2026-05-08 06:33 | 34.21246 | -114.96371 | 33842 ft | 483 kts | 230° |
| 2026-05-08 06:33 | 34.16784 | -115.02441 | 33847 ft | 483 kts | 230° |
| 2026-05-08 06:34 | 34.12348 | -115.08466 | 33854 ft | 483 kts | 230° |
| 2026-05-08 06:34 | 34.07872 | -115.14536 | 33851 ft | 483 kts | 230° |
| 2026-05-08 06:35 | 34.03402 | -115.20586 | 33863 ft | 483 kts | 230° |
| 2026-05-08 06:35 | 33.98930 | -115.26632 | 33869 ft | 483 kts | 230° |
| 2026-05-08 06:36 | 33.94462 | -115.32688 | 33876 ft | 483 kts | 230° |
| 2026-05-08 06:36 | 33.90018 | -115.38706 | 33879 ft | 484 kts | 230° |
| 2026-05-08 06:37 | 33.85526 | -115.44776 | 33884 ft | 484 kts | 230° |
| 2026-05-08 06:37 | 33.81039 | -115.50832 | 33887 ft | 484 kts | 230° |
| 2026-05-08 06:38 | 33.76546 | -115.56885 | 33882 ft | 485 kts | 230° |
| 2026-05-08 06:38 | 33.72041 | -115.62943 | 33880 ft | 485 kts | 229° |
| 2026-05-08 06:39 | 33.67544 | -115.68924 | 33827 ft | 485 kts | 229° |
| 2026-05-08 06:39 | 33.65286 | -115.71906 | 33090 ft | 479 kts | 229° |
| 2026-05-08 06:39 | 33.63050 | -115.74866 | 31991 ft | 478 kts | 230° |
| 2026-05-08 06:40 | 33.60997 | -115.78003 | 30834 ft | 478 kts | 236° |
| 2026-05-08 06:40 | 33.59089 | -115.81269 | 29714 ft | 477 kts | 237° |
| 2026-05-08 06:40 | 33.57205 | -115.84546 | 28574 ft | 473 kts | 237° |
| 2026-05-08 06:40 | 33.55349 | -115.87773 | 27567 ft | 467 kts | 237° |
| 2026-05-08 06:41 | 33.53512 | -115.90961 | 26549 ft | 466 kts | 237° |
| 2026-05-08 06:41 | 33.51673 | -115.94147 | 25884 ft | 461 kts | 237° |
| 2026-05-08 06:41 | 33.49849 | -115.97300 | 25301 ft | 463 kts | 237° |
| 2026-05-08 06:41 | 33.47988 | -116.00516 | 24697 ft | 474 kts | 236° |
| 2026-05-08 06:42 | 33.46747 | -116.02657 | 24277 ft | 475 kts | 236° |
| 2026-05-08 06:42 | 33.44861 | -116.05907 | 23639 ft | 472 kts | 236° |
| 2026-05-08 06:42 | 33.42395 | -116.10149 | 22740 ft | 465 kts | 236° |
| 2026-05-08 06:42 | 33.40558 | -116.13308 | 22133 ft | 460 kts | 236° |
| 2026-05-08 06:43 | 33.38734 | -116.16441 | 21537 ft | 456 kts | 236° |
| 2026-05-08 06:43 | 33.37507 | -116.18549 | 21125 ft | 453 kts | 236° |
| 2026-05-08 06:43 | 33.35737 | -116.21580 | 20557 ft | 449 kts | 236° |
| 2026-05-08 06:43 | 33.33727 | -116.24424 | 19964 ft | 448 kts | 224° |
| 2026-05-08 06:44 | 33.31167 | -116.26552 | 19399 ft | 446 kts | 209° |
| 2026-05-08 06:44 | 33.28410 | -116.28217 | 18819 ft | 442 kts | 206° |
| 2026-05-08 06:44 | 33.25649 | -116.29804 | 18245 ft | 439 kts | 206° |
| 2026-05-08 06:44 | 33.22900 | -116.31387 | 17607 ft | 436 kts | 206° |
| 2026-05-08 06:45 | 33.20209 | -116.32947 | 17075 ft | 433 kts | 206° |
| 2026-05-08 06:45 | 33.17512 | -116.34518 | 16536 ft | 429 kts | 205° |
| 2026-05-08 06:45 | 33.14834 | -116.36080 | 15981 ft | 427 kts | 205° |
| 2026-05-08 06:45 | 33.12171 | -116.37635 | 15417 ft | 423 kts | 205° |
| 2026-05-08 06:46 | 33.09526 | -116.39180 | 14880 ft | 420 kts | 205° |
| 2026-05-08 06:46 | 33.06947 | -116.40686 | 14341 ft | 417 kts | 205° |
| 2026-05-08 06:46 | 33.04361 | -116.42195 | 13927 ft | 408 kts | 205° |
| 2026-05-08 06:46 | 33.01848 | -116.43662 | 13560 ft | 394 kts | 204° |
| 2026-05-08 06:47 | 32.99366 | -116.44859 | 13194 ft | 374 kts | 197° |
| 2026-05-08 06:47 | 32.96947 | -116.45775 | 12835 ft | 355 kts | 195° |
| 2026-05-08 06:47 | 32.94618 | -116.46624 | 12345 ft | 345 kts | 195° |
| 2026-05-08 06:47 | 32.92352 | -116.47448 | 12230 ft | 340 kts | 195° |
| 2026-05-08 06:48 | 32.90084 | -116.48274 | 12113 ft | 341 kts | 195° |
| 2026-05-08 06:48 | 32.87821 | -116.49102 | 11928 ft | 340 kts | 195° |
| 2026-05-08 06:48 | 32.85563 | -116.49929 | 11731 ft | 339 kts | 196° |
| 2026-05-08 06:48 | 32.83342 | -116.50743 | 11542 ft | 338 kts | 196° |
| 2026-05-08 06:49 | 32.81090 | -116.51569 | 11352 ft | 337 kts | 196° |
| 2026-05-08 06:49 | 32.78851 | -116.52390 | 11158 ft | 336 kts | 196° |
| 2026-05-08 06:49 | 32.76620 | -116.53208 | 10963 ft | 335 kts | 196° |
| 2026-05-08 06:49 | 32.74395 | -116.54024 | 10769 ft | 334 kts | 196° |
| 2026-05-08 06:50 | 32.72169 | -116.54839 | 10575 ft | 333 kts | 196° |
| 2026-05-08 06:50 | 32.70020 | -116.55627 | 10418 ft | 322 kts | 196° |
| 2026-05-08 06:50 | 32.67920 | -116.56397 | 10247 ft | 311 kts | 197° |
| 2026-05-08 06:50 | 32.65962 | -116.57416 | 10070 ft | 305 kts | 212° |
| 2026-05-08 06:51 | 32.64288 | -116.58899 | 9917 ft | 296 kts | 223° |
| 2026-05-08 06:51 | 32.63017 | -116.60767 | 9716 ft | 288 kts | 242° |
| 2026-05-08 06:51 | 32.62417 | -116.63022 | 9220 ft | 290 kts | 269° |
| 2026-05-08 06:51 | 32.62590 | -116.65379 | 8811 ft | 285 kts | 281° |
| 2026-05-08 06:52 | 32.62946 | -116.67685 | 8264 ft | 282 kts | 283° |
| 2026-05-08 06:52 | 32.63323 | -116.69951 | 7723 ft | 278 kts | 283° |
| 2026-05-08 06:52 | 32.63696 | -116.72181 | 7192 ft | 274 kts | 283° |
| 2026-05-08 06:52 | 32.64061 | -116.74384 | 6693 ft | 268 kts | 283° |
| 2026-05-08 06:53 | 32.64410 | -116.76509 | 6190 ft | 264 kts | 283° |
| 2026-05-08 06:53 | 32.64757 | -116.78639 | 5598 ft | 262 kts | 283° |
| 2026-05-08 06:53 | 32.65102 | -116.80757 | 5121 ft | 258 kts | 283° |
| 2026-05-08 06:53 | 32.65440 | -116.82840 | 4762 ft | 255 kts | 283° |
| 2026-05-08 06:54 | 32.65776 | -116.84908 | 4306 ft | 257 kts | 282° |
| 2026-05-08 06:54 | 32.66116 | -116.87004 | 4157 ft | 261 kts | 282° |
| 2026-05-08 06:54 | 32.66459 | -116.89128 | 4115 ft | 261 kts | 282° |
| 2026-05-08 06:54 | 32.66791 | -116.91173 | 4115 ft | 248 kts | 282° |
| 2026-05-08 06:55 | 32.67114 | -116.93131 | 4112 ft | 237 kts | 284° |
| 2026-05-08 06:55 | 32.67529 | -116.95026 | 4121 ft | 236 kts | 287° |
| 2026-05-08 06:55 | 32.67968 | -116.96838 | 4105 ft | 218 kts | 287° |
| 2026-05-08 06:55 | 32.68379 | -116.98518 | 4115 ft | 208 kts | 288° |
| 2026-05-08 06:56 | 32.68785 | -117.00171 | 3905 ft | 208 kts | 288° |
| 2026-05-08 06:56 | 32.69187 | -117.01803 | 3554 ft | 210 kts | 287° |
| 2026-05-08 06:56 | 32.69594 | -117.03470 | 3177 ft | 211 kts | 287° |
| 2026-05-08 06:56 | 32.70004 | -117.05144 | 2875 ft | 210 kts | 286° |
| 2026-05-08 06:57 | 32.70413 | -117.06819 | 2542 ft | 211 kts | 286° |
| 2026-05-08 06:57 | 32.70820 | -117.08489 | 2231 ft | 210 kts | 285° |
| 2026-05-08 06:57 | 32.71223 | -117.10149 | 2163 ft | 209 kts | 285° |
| 2026-05-08 06:57 | 32.71625 | -117.11806 | 2158 ft | 208 kts | 285° |
| 2026-05-08 06:58 | 32.72025 | -117.13446 | 2051 ft | 210 kts | 287° |
| 2026-05-08 06:58 | 32.72478 | -117.15159 | 1376 ft | 221 kts | 285° |
| 2026-05-08 06:58 | 32.72837 | -117.16951 | 365 ft | 226 kts | 284° |
| 2026-05-08 06:58 | 32.73254 | -117.18546 | 853 ft | 171 kts | 285° |
| 2026-05-08 06:59 | 32.73500 | -117.19750 | 2004 ft | 141 kts | 283° |
| 2026-05-08 06:59 | 32.73789 | -117.20983 | 2280 ft | 173 kts | 286° |
| 2026-05-08 06:59 | 32.74187 | -117.22562 | 2228 ft | 227 kts | 286° |
| 2026-05-08 06:59 | 32.74669 | -117.24497 | 2174 ft | 253 kts | 286° |
| 2026-05-08 07:00 | 32.75169 | -117.26533 | 2160 ft | 258 kts | 286° |
| 2026-05-08 07:00 | 32.75669 | -117.28586 | 2162 ft | 259 kts | 285° |
| 2026-05-08 07:00 | 32.76169 | -117.30645 | 2144 ft | 259 kts | 285° |
| 2026-05-08 07:00 | 32.76667 | -117.32704 | 2141 ft | 259 kts | 285° |
| 2026-05-08 07:01 | 32.77164 | -117.34759 | 2144 ft | 259 kts | 285° |
| 2026-05-08 07:01 | 32.77660 | -117.36813 | 2140 ft | 259 kts | 285° |
| 2026-05-08 07:01 | 32.78144 | -117.38844 | 2137 ft | 259 kts | 285° |
| 2026-05-08 07:01 | 32.78617 | -117.40913 | 2137 ft | 259 kts | 284° |
| 2026-05-08 07:02 | 32.79082 | -117.42979 | 2138 ft | 259 kts | 284° |
| 2026-05-08 07:02 | 32.79548 | -117.45048 | 2137 ft | 259 kts | 285° |
| 2026-05-08 07:02 | 32.80231 | -117.47033 | 2133 ft | 259 kts | 300° |
| 2026-05-08 07:02 | 32.81435 | -117.48626 | 2247 ft | 263 kts | 324° |
| 2026-05-08 07:03 | 32.83115 | -117.49378 | 2915 ft | 264 kts | 353° |
| 2026-05-08 07:03 | 32.84931 | -117.49037 | 3932 ft | 265 kts | 22° |
| 2026-05-08 07:03 | 32.86355 | -117.47687 | 5027 ft | 272 kts | 50° |
| 2026-05-08 07:03 | 32.87065 | -117.45573 | 6027 ft | 283 kts | 81° |
| 2026-05-08 07:04 | 32.86989 | -117.43199 | 6719 ft | 291 kts | 97° |
| 2026-05-08 07:04 | 32.86515 | -117.40853 | 7046 ft | 292 kts | 106° |
| 2026-05-08 07:04 | 32.85845 | -117.38560 | 7133 ft | 293 kts | 109° |
| 2026-05-08 07:04 | 32.85115 | -117.36283 | 7141 ft | 294 kts | 110° |
| 2026-05-08 07:05 | 32.84406 | -117.34033 | 7140 ft | 294 kts | 109° |
| 2026-05-08 07:05 | 32.83726 | -117.31737 | 7162 ft | 294 kts | 107° |
| 2026-05-08 07:05 | 32.83084 | -117.29425 | 7154 ft | 293 kts | 106° |
| 2026-05-08 07:05 | 32.82471 | -117.27113 | 7153 ft | 293 kts | 105° |
| 2026-05-08 07:06 | 32.81875 | -117.24796 | 7149 ft | 293 kts | 105° |
| 2026-05-08 07:06 | 32.81291 | -117.22498 | 7150 ft | 293 kts | 105° |
| 2026-05-08 07:06 | 32.80702 | -117.20178 | 7152 ft | 293 kts | 105° |
| 2026-05-08 07:06 | 32.80111 | -117.17858 | 7151 ft | 293 kts | 105° |
| 2026-05-08 07:07 | 32.79517 | -117.15533 | 7153 ft | 293 kts | 105° |
| 2026-05-08 07:07 | 32.78919 | -117.13210 | 7151 ft | 293 kts | 105° |
| 2026-05-08 07:07 | 32.78321 | -117.10892 | 7154 ft | 293 kts | 105° |
| 2026-05-08 07:07 | 32.77729 | -117.08605 | 7154 ft | 293 kts | 105° |
| 2026-05-08 07:08 | 32.77127 | -117.06286 | 7149 ft | 293 kts | 105° |
| 2026-05-08 07:08 | 32.76526 | -117.03975 | 7141 ft | 293 kts | 105° |
| 2026-05-08 07:08 | 32.75926 | -117.01661 | 7143 ft | 293 kts | 105° |
| 2026-05-08 07:08 | 32.75322 | -116.99339 | 7141 ft | 293 kts | 105° |
| 2026-05-08 07:09 | 32.74727 | -116.97052 | 7141 ft | 293 kts | 105° |
| 2026-05-08 07:09 | 32.74125 | -116.94737 | 7139 ft | 293 kts | 105° |
| 2026-05-08 07:09 | 32.73523 | -116.92426 | 7145 ft | 293 kts | 105° |
| 2026-05-08 07:09 | 32.72917 | -116.90107 | 7141 ft | 293 kts | 105° |
| 2026-05-08 07:10 | 32.72312 | -116.87791 | 7139 ft | 293 kts | 105° |
| 2026-05-08 07:10 | 32.71707 | -116.85473 | 7141 ft | 293 kts | 105° |
| 2026-05-08 07:10 | 32.71109 | -116.83186 | 7139 ft | 293 kts | 105° |
| 2026-05-08 07:10 | 32.70505 | -116.80877 | 7135 ft | 293 kts | 105° |
| 2026-05-08 07:11 | 32.69899 | -116.78563 | 7137 ft | 294 kts | 105° |
| 2026-05-08 07:11 | 32.69291 | -116.76242 | 7128 ft | 293 kts | 105° |
| 2026-05-08 07:11 | 32.68684 | -116.73923 | 7136 ft | 294 kts | 105° |
| 2026-05-08 07:11 | 32.68075 | -116.71607 | 7137 ft | 294 kts | 105° |
| 2026-05-08 07:12 | 32.67465 | -116.69296 | 7136 ft | 294 kts | 105° |
| 2026-05-08 07:12 | 32.66864 | -116.67011 | 7141 ft | 293 kts | 105° |
| 2026-05-08 07:12 | 32.66192 | -116.64730 | 7131 ft | 294 kts | 113° |
| 2026-05-08 07:12 | 32.65085 | -116.62687 | 6808 ft | 297 kts | 133° |
| 2026-05-08 07:13 | 32.63396 | -116.61337 | 6585 ft | 288 kts | 161° |
| 2026-05-08 07:13 | 32.61484 | -116.61029 | 6372 ft | 271 kts | 187° |
| 2026-05-08 07:13 | 32.59738 | -116.61686 | 5952 ft | 260 kts | 214° |
| 2026-05-08 07:13 | 32.58438 | -116.63105 | 5517 ft | 250 kts | 239° |
| 2026-05-08 07:14 | 32.57780 | -116.64918 | 5308 ft | 231 kts | 261° |
| 2026-05-08 07:14 | 32.57734 | -116.66717 | 5134 ft | 214 kts | 282° |
| 2026-05-08 07:14 | 32.58123 | -116.68367 | 4975 ft | 202 kts | 292° |
| 2026-05-08 07:14 | 32.58635 | -116.69879 | 4889 ft | 192 kts | 295° |
| 2026-05-08 07:15 | 32.59173 | -116.71283 | 4843 ft | 182 kts | 297° |
| 2026-05-08 07:15 | 32.59706 | -116.72623 | 4698 ft | 177 kts | 297° |
| 2026-05-08 07:15 | 32.60232 | -116.73946 | 4432 ft | 178 kts | 296° |
| 2026-05-08 07:15 | 32.60739 | -116.75267 | 4202 ft | 178 kts | 295° |
| 2026-05-08 07:16 | 32.61237 | -116.76615 | 4150 ft | 179 kts | 295° |
| 2026-05-08 07:16 | 32.61725 | -116.77967 | 4161 ft | 178 kts | 294° |
| 2026-05-08 07:16 | 32.62206 | -116.79323 | 4142 ft | 178 kts | 294° |
| 2026-05-08 07:16 | 32.62683 | -116.80682 | 4138 ft | 178 kts | 294° |
| 2026-05-08 07:17 | 32.63157 | -116.82040 | 4139 ft | 178 kts | 294° |
| 2026-05-08 07:17 | 32.63630 | -116.83399 | 4136 ft | 178 kts | 294° |
| 2026-05-08 07:17 | 32.64101 | -116.84755 | 4145 ft | 178 kts | 294° |
| 2026-05-08 07:17 | 32.64519 | -116.86123 | 4138 ft | 178 kts | 290° |
| 2026-05-08 07:18 | 32.64927 | -116.87510 | 4096 ft | 178 kts | 291° |
| 2026-05-08 07:18 | 32.65343 | -116.88912 | 3793 ft | 181 kts | 290° |
| 2026-05-08 07:18 | 32.65759 | -116.90322 | 3532 ft | 181 kts | 290° |
| 2026-05-08 07:18 | 32.66172 | -116.91733 | 3254 ft | 182 kts | 290° |
| 2026-05-08 07:19 | 32.66579 | -116.93169 | 2966 ft | 183 kts | 289° |
| 2026-05-08 07:19 | 32.66975 | -116.94593 | 2766 ft | 179 kts | 289° |
| 2026-05-08 07:19 | 32.67351 | -116.95953 | 2608 ft | 167 kts | 288° |
| 2026-05-08 07:19 | 32.67705 | -116.97236 | 2346 ft | 161 kts | 288° |
| 2026-05-08 07:20 | 32.68050 | -116.98487 | 2008 ft | 158 kts | 288° |
| 2026-05-08 07:20 | 32.68387 | -116.99700 | 1781 ft | 148 kts | 288° |
| 2026-05-08 07:20 | 32.68693 | -117.00797 | 1693 ft | 135 kts | 288° |
| 2026-05-08 07:20 | 32.68988 | -117.01855 | 1597 ft | 135 kts | 288° |